createdAt,value
2023-02-03T00:01:56.980Z,0.84
2023-02-03T00:04:23.551Z,0.86
2023-02-03T00:06:51.020Z,0.86
2023-02-03T00:09:17.786Z,0.88
2023-02-03T00:11:44.365Z,0.89
2023-02-03T00:14:10.943Z,0.88
2023-02-03T00:16:37.545Z,0.90
2023-02-03T00:19:04.100Z,0.91
2023-02-03T00:21:30.658Z,0.93
2023-02-03T00:23:57.217Z,0.93
2023-02-03T00:26:26.032Z,0.90
2023-02-03T00:28:52.626Z,0.93
2023-02-03T00:31:21.933Z,0.92
2023-02-03T00:33:54.142Z,0.94
2023-02-03T00:36:20.675Z,0.93
2023-02-03T00:38:48.979Z,0.93
2023-02-03T00:41:16.094Z,0.89
2023-02-03T00:43:42.894Z,0.91
2023-02-03T00:46:09.616Z,0.90
2023-02-03T00:48:36.332Z,0.89
2023-02-03T00:51:02.924Z,0.90
2023-02-03T00:53:29.447Z,0.90
2023-02-03T00:55:56.102Z,0.90
2023-02-03T00:58:22.665Z,0.90
2023-02-03T01:00:49.213Z,0.89
2023-02-03T01:03:17.109Z,0.91
2023-02-03T01:05:43.660Z,0.91
2023-02-03T01:08:10.218Z,0.90
2023-02-03T01:10:38.622Z,0.88
2023-02-03T01:13:05.145Z,0.86
2023-02-03T01:15:31.752Z,0.81
2023-02-03T01:17:58.395Z,0.81
2023-02-03T01:20:25.457Z,0.80
2023-02-03T01:22:52.299Z,0.80
2023-02-03T01:25:18.873Z,0.85
2023-02-03T01:27:45.404Z,0.82
2023-02-03T01:30:12.326Z,0.83
2023-02-03T01:32:38.896Z,0.82
2023-02-03T01:35:05.782Z,0.76
2023-02-03T01:37:32.343Z,0.78
2023-02-03T01:39:58.900Z,0.77
2023-02-03T01:42:25.463Z,0.81
2023-02-03T01:44:52.647Z,0.80
2023-02-03T01:47:28.171Z,0.80
2023-02-03T01:49:57.838Z,0.81
2023-02-03T01:52:25.110Z,0.82
2023-02-03T01:54:54.330Z,0.84
2023-02-03T01:57:26.910Z,0.84
2023-02-03T01:59:56.389Z,0.82
2023-02-03T02:02:23.217Z,0.81
2023-02-03T02:04:59.415Z,0.79
2023-02-03T02:07:26.288Z,0.77
2023-02-03T02:09:52.859Z,0.73
2023-02-03T02:12:19.448Z,0.77
2023-02-03T02:14:47.678Z,0.75
2023-02-03T02:17:42.169Z,0.76
2023-02-03T02:20:21.001Z,0.74
2023-02-03T02:23:19.926Z,0.73
2023-02-03T02:25:52.093Z,0.75
2023-02-03T02:28:52.493Z,0.75
2023-02-03T02:31:44.290Z,0.73
2023-02-03T02:34:43.463Z,0.71
2023-02-03T02:37:37.456Z,0.72
2023-02-03T02:40:21.831Z,0.71
2023-02-03T02:42:54.259Z,0.71
2023-02-03T02:45:27.570Z,0.73
2023-02-03T02:48:02.735Z,0.73
2023-02-03T02:50:34.445Z,0.75
2023-02-03T02:53:03.531Z,0.77
2023-02-03T02:55:33.750Z,0.77
2023-02-03T02:58:06.124Z,0.76
2023-02-03T03:00:35.271Z,0.76
2023-02-03T03:03:19.966Z,0.79
2023-02-03T03:06:10.702Z,0.78
2023-02-03T03:08:39.720Z,0.78
2023-02-03T03:11:07.262Z,0.80
2023-02-03T03:13:45.125Z,0.81
2023-02-03T03:16:14.436Z,0.85
2023-02-03T03:18:51.486Z,0.86
2023-02-03T03:21:25.140Z,0.82
2023-02-03T03:23:54.883Z,0.82
2023-02-03T03:26:32.794Z,0.80
2023-02-03T03:29:17.497Z,0.78
2023-02-03T03:31:45.180Z,0.77
2023-02-03T03:34:13.278Z,0.80
2023-02-03T03:36:46.287Z,0.78
2023-02-03T03:39:26.020Z,0.76
2023-02-03T03:42:31.334Z,0.81
2023-02-03T03:45:04.009Z,0.79
2023-02-03T03:47:59.340Z,0.79
2023-02-03T03:50:30.841Z,0.79
2023-02-03T03:53:01.260Z,0.79
2023-02-03T03:55:31.310Z,0.80
2023-02-03T03:58:30.004Z,0.78
2023-02-03T04:01:01.266Z,0.79
2023-02-03T04:03:33.068Z,0.81
2023-02-03T04:05:59.578Z,0.79
2023-02-03T04:08:26.113Z,0.79
2023-02-03T04:10:52.719Z,0.79
2023-02-03T04:13:20.503Z,0.83
2023-02-03T04:15:47.160Z,0.82
2023-02-03T04:18:14.900Z,0.82
2023-02-03T04:20:42.272Z,0.82
2023-02-03T04:23:09.728Z,0.82
2023-02-03T04:25:36.301Z,0.83
2023-02-03T04:28:03.530Z,0.83
2023-02-03T04:30:30.292Z,0.81
2023-02-03T04:32:56.953Z,0.82
2023-02-03T04:35:23.697Z,0.83
2023-02-03T04:37:50.249Z,0.82
2023-02-03T04:40:17.208Z,0.84
2023-02-03T04:42:43.734Z,0.85
2023-02-03T04:45:11.613Z,0.85
2023-02-03T04:47:39.350Z,0.85
2023-02-03T04:50:06.233Z,0.86
2023-02-03T04:52:32.749Z,0.86
2023-02-03T04:54:59.360Z,0.85
2023-02-03T04:57:25.871Z,0.86
2023-02-03T04:59:52.386Z,0.87
2023-02-03T05:02:19.051Z,0.86
2023-02-03T05:04:45.572Z,0.85
2023-02-03T05:07:12.269Z,0.86
2023-02-03T05:09:38.845Z,0.88
2023-02-03T05:12:05.636Z,0.91
2023-02-03T05:14:32.154Z,0.90
2023-02-03T05:16:58.786Z,0.89
2023-02-03T05:19:25.385Z,0.91
2023-02-03T05:21:52.044Z,0.92
2023-02-03T05:24:18.621Z,0.95
2023-02-03T05:26:45.225Z,0.95
2023-02-03T05:29:11.913Z,0.95
2023-02-03T05:31:38.608Z,0.96
2023-02-03T05:34:05.211Z,0.98
2023-02-03T08:05:27.326Z,0.26
2023-02-03T08:07:53.900Z,0.34
2023-02-03T08:10:20.487Z,0.41
2023-02-03T08:12:48.071Z,0.52
2023-02-03T08:15:14.729Z,0.60
2023-02-03T08:17:42.114Z,0.61
2023-02-03T08:20:10.551Z,0.65
2023-02-03T08:22:37.326Z,0.68
2023-02-03T08:25:04.070Z,0.75
2023-02-03T08:27:32.178Z,0.80
2023-02-03T08:29:59.127Z,0.80
2023-02-03T08:32:26.998Z,0.85
2023-02-03T08:34:54.060Z,0.83
2023-02-03T08:37:24.389Z,0.89
2023-02-03T08:39:51.824Z,0.92
2023-02-03T08:42:19.524Z,1.00
2023-02-03T08:44:46.198Z,1.05
2023-02-03T08:47:13.119Z,1.12
2023-02-03T08:49:39.787Z,1.20
2023-02-03T08:52:12.275Z,1.20
2023-02-03T08:54:38.962Z,1.17
2023-02-03T08:57:06.130Z,1.20
2023-02-03T08:59:36.096Z,1.25
2023-02-03T09:02:04.597Z,1.29
2023-02-03T09:04:33.450Z,1.37
2023-02-03T09:07:01.032Z,1.40
2023-02-03T09:09:29.041Z,1.39
2023-02-03T09:12:02.280Z,1.34
2023-02-03T09:14:30.127Z,1.44
2023-02-03T09:16:57.036Z,1.47
2023-02-03T09:19:23.690Z,1.46
2023-02-03T09:21:50.730Z,1.44
2023-02-03T09:24:18.597Z,1.43
2023-02-03T09:26:45.699Z,1.45
2023-02-03T09:29:12.340Z,1.49
2023-02-03T09:31:38.930Z,1.55
2023-02-03T09:34:05.526Z,1.65
2023-02-03T09:36:32.085Z,1.66
2023-02-03T09:38:58.816Z,1.61
2023-02-03T09:41:46.050Z,1.58
2023-02-03T09:44:18.641Z,1.57
2023-02-03T09:46:51.816Z,1.52
2023-02-03T09:49:21.271Z,1.50
2023-02-03T09:51:52.798Z,1.53
2023-02-03T09:54:26.517Z,1.54
2023-02-03T09:56:55.724Z,1.54
2023-02-03T09:59:23.032Z,1.49
2023-02-03T10:02:00.100Z,1.47
2023-02-03T10:04:42.378Z,1.46
2023-02-03T10:07:25.295Z,1.57
2023-02-03T10:10:04.231Z,1.73
2023-02-03T10:12:51.961Z,2.11
2023-02-03T10:15:37.078Z,2.21
2023-02-03T10:18:11.951Z,2.16
2023-02-03T10:20:58.884Z,2.18
2023-02-03T10:23:39.008Z,2.26
2023-02-03T10:26:18.721Z,2.28
2023-02-03T10:28:55.439Z,2.18
2023-02-03T10:31:25.341Z,2.23
2023-02-03T10:34:00.083Z,2.27
2023-02-03T10:36:50.608Z,2.44
2023-02-03T10:39:17.128Z,2.59
2023-02-03T10:41:43.694Z,2.61
2023-02-03T10:44:14.830Z,2.66
2023-02-03T10:46:44.096Z,2.67
2023-02-03T10:49:13.933Z,2.67
2023-02-03T10:51:49.067Z,2.81
2023-02-03T10:54:32.417Z,3.11
2023-02-03T10:57:14.175Z,3.34
2023-02-03T10:59:48.316Z,3.30
2023-02-03T11:02:28.828Z,3.17
2023-02-03T11:05:24.865Z,3.06
2023-02-03T11:07:52.355Z,2.98
2023-02-03T11:10:28.227Z,2.84
2023-02-03T11:13:26.288Z,2.70
2023-02-03T11:16:01.788Z,2.82
2023-02-03T11:18:37.666Z,2.96
2023-02-03T11:21:19.932Z,2.76
2023-02-03T11:23:52.503Z,2.55
2023-02-03T11:26:28.964Z,2.44
2023-02-03T11:28:58.778Z,2.28
2023-02-03T11:31:32.412Z,2.14
2023-02-03T11:34:04.407Z,2.00
2023-02-03T11:36:34.499Z,1.89
2023-02-03T11:39:16.108Z,1.78
2023-02-03T11:41:42.859Z,1.70
2023-02-03T11:44:21.239Z,1.65
2023-02-03T11:46:52.255Z,1.57
2023-02-03T11:49:27.637Z,1.57
2023-02-03T11:52:26.014Z,1.54
2023-02-03T11:55:08.086Z,1.53
2023-02-03T11:58:01.791Z,1.52
2023-02-03T12:00:37.645Z,1.50
2023-02-03T12:03:19.197Z,1.60
2023-02-03T12:06:18.357Z,1.69
2023-02-03T12:09:17.906Z,1.75
2023-02-03T12:11:50.384Z,1.78
2023-02-03T12:14:32.048Z,1.81
2023-02-03T12:17:12.278Z,1.79
2023-02-03T12:20:01.197Z,1.86
2023-02-03T12:22:50.792Z,1.83
2023-02-03T12:25:33.498Z,1.78
2023-02-03T12:28:27.417Z,1.71
2023-02-03T12:31:07.642Z,1.73
2023-02-03T12:33:40.924Z,1.68
2023-02-03T12:36:40.152Z,1.62
2023-02-03T12:39:25.177Z,1.53
2023-02-03T12:42:18.586Z,1.39
2023-02-03T12:44:57.302Z,1.35
2023-02-03T12:47:32.039Z,1.26
2023-02-03T12:50:27.642Z,1.16
2023-02-03T12:53:00.622Z,1.10
2023-02-03T12:55:41.733Z,1.06
2023-02-03T12:58:20.213Z,0.98
2023-02-03T13:00:57.849Z,0.93
2023-02-03T13:03:32.751Z,0.90
2023-02-03T13:06:15.100Z,0.83
2023-02-03T13:08:51.995Z,0.78
2023-02-03T13:11:37.047Z,0.78
2023-02-03T13:14:20.693Z,0.76
2023-02-03T13:16:53.551Z,0.69
2023-02-03T13:19:28.587Z,0.71
2023-02-03T13:21:55.329Z,0.70
2023-02-03T13:24:26.819Z,0.69
2023-02-03T13:27:20.453Z,0.70
2023-02-03T13:29:49.701Z,0.67
2023-02-03T13:32:38.706Z,0.65
2023-02-03T13:35:33.216Z,0.66
2023-02-03T13:38:44.933Z,0.61
2023-02-03T13:41:24.368Z,0.55
2023-02-03T13:57:21.728Z,0.49
2023-02-03T13:59:57.235Z,0.49
2023-02-03T14:02:24.328Z,0.48
2023-02-03T14:04:54.414Z,0.49
2023-02-03T14:07:24.727Z,0.52
2023-02-03T14:10:14.050Z,0.52
2023-02-03T14:12:49.484Z,0.53
2023-02-03T14:15:32.088Z,0.49
2023-02-03T14:18:32.546Z,0.53
2023-02-03T14:38:11.172Z,0.45
2023-02-03T14:41:03.166Z,0.45
2023-02-03T14:43:48.337Z,0.46
2023-02-03T14:46:21.983Z,0.43
2023-02-03T14:49:20.751Z,0.44
2023-02-03T14:52:05.714Z,0.41
2023-02-03T14:54:54.396Z,0.42
2023-02-03T14:57:35.751Z,0.37
2023-02-03T15:00:05.584Z,0.38
2023-02-03T15:02:34.597Z,0.35
2023-02-03T15:05:13.610Z,0.32
2023-02-03T15:07:45.415Z,0.33
2023-02-03T15:10:29.094Z,0.27
2023-02-03T15:12:58.183Z,0.32
2023-02-03T15:15:34.868Z,0.29
2023-02-03T15:18:21.721Z,0.28
2023-02-03T15:20:54.064Z,0.28
2023-02-03T15:23:38.586Z,0.24
2023-02-03T15:26:18.547Z,0.26
2023-02-03T15:28:54.277Z,0.20
2023-02-03T15:31:28.318Z,0.16
2023-02-03T15:33:58.729Z,0.15
2023-02-03T15:36:43.102Z,0.16
2023-02-03T15:39:16.614Z,0.08
2023-02-03T15:41:44.525Z,0.05
2023-02-03T15:44:30.943Z,0.03
2023-02-03T15:46:58.307Z,-0.01
2023-02-03T15:49:32.299Z,-0.01
2023-02-03T15:52:11.491Z,0.00
2023-02-03T15:54:42.545Z,0.02
2023-02-03T15:57:16.561Z,0.05
2023-02-03T15:59:51.034Z,0.04
2023-02-03T16:02:34.481Z,0.07
2023-02-03T16:05:31.977Z,0.07
2023-02-03T16:08:37.753Z,0.03
2023-02-03T16:11:37.009Z,-0.02
2023-02-03T16:14:34.057Z,-0.04
2023-02-03T16:17:05.447Z,-0.05
2023-02-03T16:19:37.999Z,-0.06
2023-02-03T16:22:04.945Z,-0.07
2023-02-03T16:24:41.432Z,-0.06
2023-02-03T16:27:26.309Z,-0.09
2023-02-03T16:30:12.217Z,-0.15
2023-02-03T16:32:57.806Z,-0.14
2023-02-03T16:35:43.325Z,-0.21
2023-02-03T16:38:35.913Z,-0.17
2023-02-03T16:41:31.241Z,-0.19
2023-02-03T16:44:16.644Z,-0.21
2023-02-03T16:47:04.659Z,-0.21
2023-02-03T16:49:49.806Z,-0.21
2023-02-03T16:52:16.640Z,-0.23
2023-02-03T16:54:43.192Z,-0.23
2023-02-03T16:57:09.706Z,-0.21
2023-02-03T16:59:36.249Z,-0.20
2023-02-03T17:02:02.817Z,-0.22
2023-02-03T17:04:29.438Z,-0.30
2023-02-03T17:06:56.016Z,-0.28
2023-02-03T17:09:24.938Z,-0.31
2023-02-03T17:11:51.750Z,-0.34
2023-02-03T17:14:18.382Z,-0.36
2023-02-03T17:16:45.009Z,-0.35
2023-02-03T17:19:12.545Z,-0.39
2023-02-03T17:21:39.423Z,-0.41
2023-02-03T17:24:06.339Z,-0.42
2023-02-03T17:26:34.261Z,-0.43
2023-02-03T17:29:03.566Z,-0.43
2023-02-03T17:31:30.546Z,-0.44
2023-02-03T17:33:57.847Z,-0.44
2023-02-03T17:36:24.588Z,-0.46
2023-02-03T17:55:19.855Z,-0.44
2023-02-03T17:57:46.430Z,-0.47
2023-02-03T18:00:13.489Z,-0.57
2023-02-03T18:02:40.267Z,-0.53
2023-02-03T18:05:07.578Z,-0.53
2023-02-03T18:07:34.259Z,-0.58
2023-02-03T18:10:00.951Z,-0.55
2023-02-03T18:12:27.683Z,-0.54
2023-02-03T18:14:54.342Z,-0.55
2023-02-03T18:17:20.932Z,-0.56
2023-02-03T18:19:54.775Z,-0.59
2023-02-03T18:22:22.552Z,-0.60
2023-02-03T18:24:52.700Z,-0.54
2023-02-03T18:27:19.571Z,-0.54
2023-02-03T18:29:47.171Z,-0.56
2023-02-03T18:32:15.958Z,-0.55
2023-02-03T18:34:42.628Z,-0.54
2023-02-03T18:37:09.284Z,-0.55
2023-02-03T18:39:35.999Z,-0.55
2023-02-03T18:42:03.669Z,-0.55
2023-02-03T18:44:31.636Z,-0.59
2023-02-03T18:47:06.976Z,-0.56
2023-02-03T18:49:36.600Z,-0.54
2023-02-03T18:52:04.421Z,-0.54
2023-02-03T18:54:31.060Z,-0.57
2023-02-03T18:57:02.966Z,-0.53
2023-02-03T18:59:32.161Z,-0.54
2023-02-03T19:01:58.887Z,-0.54
2023-02-03T19:04:25.661Z,-0.57
2023-02-03T19:06:52.903Z,-0.60
2023-02-03T19:09:22.370Z,-0.61
2023-02-03T19:11:49.325Z,-0.58
2023-02-03T19:14:16.489Z,-0.60
2023-02-03T19:16:43.831Z,-0.64
2023-02-03T19:19:13.352Z,-0.57
2023-02-03T19:21:39.914Z,-0.59
2023-02-03T19:24:07.149Z,-0.60
2023-02-03T19:26:34.061Z,-0.63
2023-02-03T19:29:00.842Z,-0.63
2023-02-03T19:31:27.901Z,-0.62
2023-02-03T19:33:58.938Z,-0.62
2023-02-03T19:36:29.545Z,-0.60
2023-02-03T19:38:56.906Z,-0.61
2023-02-03T19:41:26.034Z,-0.62
2023-02-03T19:43:52.725Z,-0.59
2023-02-03T19:46:21.779Z,-0.58
2023-02-03T19:48:48.817Z,-0.60
2023-02-03T19:51:15.590Z,-0.58
2023-02-03T19:53:42.400Z,-0.57
2023-02-03T19:56:09.101Z,-0.58
2023-02-03T19:58:35.915Z,-0.60
2023-02-03T20:01:02.497Z,-0.62
2023-02-03T20:03:29.230Z,-0.59
2023-02-03T20:05:55.797Z,-0.60
2023-02-03T20:08:22.525Z,-0.61
2023-02-03T20:10:49.653Z,-0.60
2023-02-03T20:13:16.262Z,-0.60
2023-02-03T20:15:44.367Z,-0.60
2023-02-03T20:18:11.199Z,-0.57
2023-02-03T20:20:37.906Z,-0.58
2023-02-03T20:23:04.486Z,-0.60
2023-02-03T20:25:31.334Z,-0.63
2023-02-03T20:27:59.650Z,-0.66
2023-02-03T20:30:26.272Z,-0.70
2023-02-03T20:32:54.853Z,-0.70
2023-02-03T20:35:23.895Z,-0.71
2023-02-03T20:37:50.996Z,-0.71
2023-02-03T20:40:19.332Z,-0.73
2023-02-03T20:42:47.343Z,-0.72
2023-02-03T20:45:18.041Z,-0.69
2023-02-03T20:47:45.143Z,-0.68
2023-02-03T20:50:23.608Z,-0.66
2023-02-03T20:52:52.651Z,-0.71
2023-02-03T20:55:22.254Z,-0.72
2023-02-03T20:57:51.639Z,-0.71
2023-02-03T21:00:24.050Z,-0.70
2023-02-03T21:03:09.412Z,-0.73
2023-02-03T21:05:39.215Z,-0.72
2023-02-03T21:08:25.288Z,-0.70
2023-02-03T21:10:52.447Z,-0.73
2023-02-03T21:13:29.081Z,-0.70
2023-02-03T21:16:04.236Z,-0.70
2023-02-03T21:18:55.174Z,-0.71
2023-02-03T21:21:34.261Z,-0.73
2023-02-03T21:24:02.094Z,-0.76
2023-02-03T21:26:30.825Z,-0.74
2023-02-03T21:28:59.672Z,-0.75
2023-02-03T21:31:34.648Z,-0.78
2023-02-03T21:34:35.120Z,-0.79
2023-02-03T21:37:11.599Z,-0.78
2023-02-03T21:39:38.133Z,-0.79
2023-02-03T21:42:40.901Z,-0.76
2023-02-03T21:45:22.518Z,-0.81
2023-02-03T21:47:53.891Z,-0.81
2023-02-03T21:50:33.987Z,-0.80
2023-02-03T21:53:20.806Z,-0.83
2023-02-03T21:55:47.419Z,-0.80
2023-02-03T21:58:26.397Z,-0.84
2023-02-03T22:00:55.845Z,-0.86
2023-02-03T22:03:40.697Z,-0.83
2023-02-03T22:06:16.715Z,-0.85
2023-02-03T22:08:43.058Z,-0.87
2023-02-03T22:11:09.905Z,-0.87
2023-02-03T22:13:37.144Z,-0.87
2023-02-03T22:16:04.587Z,-0.89
2023-02-03T22:18:31.118Z,-0.91
2023-02-03T22:20:57.951Z,-0.91
2023-02-03T22:23:24.475Z,-0.94
2023-02-03T22:25:51.036Z,-0.96
2023-02-03T22:28:17.664Z,-0.97
2023-02-03T22:30:44.355Z,-1.00
2023-02-03T22:33:11.036Z,-1.02
2023-02-03T22:35:37.722Z,-1.03
2023-02-03T22:38:04.307Z,-1.02
2023-02-03T22:40:31.211Z,-1.01
2023-02-03T22:42:58.030Z,-1.03
2023-02-03T22:45:24.647Z,-1.04
2023-02-03T22:47:51.271Z,-1.00
2023-02-03T22:50:24.602Z,-0.99
2023-02-03T22:52:57.823Z,-1.02
2023-02-03T22:55:24.499Z,-1.02
2023-02-03T22:57:52.456Z,-0.99
2023-02-03T23:00:21.843Z,-1.03
2023-02-03T23:02:50.113Z,-1.05
2023-02-03T23:05:17.502Z,-1.04
2023-02-03T23:07:45.133Z,-1.07
2023-02-03T23:10:17.382Z,-1.12
2023-02-03T23:12:44.244Z,-1.13
2023-02-03T23:15:11.528Z,-1.11
2023-02-03T23:17:38.315Z,-1.14
2023-02-03T23:20:06.565Z,-1.13
2023-02-03T23:22:33.135Z,-1.09
2023-02-03T23:25:00.435Z,-1.08
2023-02-03T23:27:27.400Z,-1.09
2023-02-03T23:29:54.088Z,-1.10
2023-02-03T23:32:20.682Z,-1.09
2023-02-03T23:35:05.791Z,-1.09
2023-02-03T23:37:32.611Z,-1.09
2023-02-03T23:39:59.163Z,-1.11
2023-02-03T23:42:25.764Z,-1.14
2023-02-03T23:44:52.377Z,-1.16
2023-02-03T23:47:18.918Z,-1.18
2023-02-03T23:49:45.431Z,-1.20
2023-02-03T23:52:11.990Z,-1.19
2023-02-03T23:54:38.541Z,-1.18
2023-02-03T23:57:05.098Z,-1.19
2023-02-03T23:59:31.855Z,-1.17
